sensor_id;sensor_type;location;lat;lon;timestamp;P1;durP1;ratioP1;P2;durP2;ratioP2
43771;SDS011;59066;54.782;32.024;2023-04-25T00:00:42;14.38;;;7.68;;
43771;SDS011;59066;54.782;32.024;2023-04-25T00:03:10;10.73;;;7.53;;
43771;SDS011;59066;54.782;32.024;2023-04-25T00:05:37;10.80;;;7.00;;
43771;SDS011;59066;54.782;32.024;2023-04-25T00:08:05;16.50;;;7.28;;
43771;SDS011;59066;54.782;32.024;2023-04-25T00:10:34;16.38;;;7.50;;
43771;SDS011;59066;54.782;32.024;2023-04-25T00:13:01;11.45;;;7.53;;
43771;SDS011;59066;54.782;32.024;2023-04-25T00:15:29;16.52;;;9.13;;
43771;SDS011;59066;54.782;32.024;2023-04-25T00:17:57;11.88;;;7.85;;
43771;SDS011;59066;54.782;32.024;2023-04-25T00:20:25;12.20;;;7.53;;
43771;SDS011;59066;54.782;32.024;2023-04-25T00:22:52;13.27;;;7.82;;
43771;SDS011;59066;54.782;32.024;2023-04-25T00:25:20;13.73;;;7.38;;
43771;SDS011;59066;54.782;32.024;2023-04-25T00:27:47;13.95;;;8.10;;
43771;SDS011;59066;54.782;32.024;2023-04-25T00:30:15;13.38;;;7.68;;
43771;SDS011;59066;54.782;32.024;2023-04-25T00:32:42;12.60;;;7.18;;
43771;SDS011;59066;54.782;32.024;2023-04-25T00:35:10;12.98;;;7.53;;
43771;SDS011;59066;54.782;32.024;2023-04-25T00:37:38;11.02;;;7.22;;
43771;SDS011;59066;54.782;32.024;2023-04-25T00:40:06;12.02;;;6.47;;
43771;SDS011;59066;54.782;32.024;2023-04-25T00:42:35;10.90;;;6.30;;
43771;SDS011;59066;54.782;32.024;2023-04-25T00:45:05;18.88;;;7.78;;
43771;SDS011;59066;54.782;32.024;2023-04-25T00:47:34;15.40;;;7.13;;
43771;SDS011;59066;54.782;32.024;2023-04-25T00:50:03;11.88;;;7.63;;
43771;SDS011;59066;54.782;32.024;2023-04-25T00:52:31;12.35;;;7.80;;
43771;SDS011;59066;54.782;32.024;2023-04-25T00:54:58;13.80;;;7.85;;
43771;SDS011;59066;54.782;32.024;2023-04-25T00:57:26;13.68;;;8.27;;
43771;SDS011;59066;54.782;32.024;2023-04-25T00:59:55;17.90;;;8.07;;
43771;SDS011;59066;54.782;32.024;2023-04-25T01:02:23;14.55;;;8.85;;
43771;SDS011;59066;54.782;32.024;2023-04-25T01:04:51;13.65;;;8.20;;
43771;SDS011;59066;54.782;32.024;2023-04-25T01:07:18;16.58;;;8.63;;
43771;SDS011;59066;54.782;32.024;2023-04-25T01:09:46;13.15;;;8.30;;
43771;SDS011;59066;54.782;32.024;2023-04-25T01:12:14;10.75;;;8.05;;
43771;SDS011;59066;54.782;32.024;2023-04-25T01:14:41;14.50;;;9.18;;
43771;SDS011;59066;54.782;32.024;2023-04-25T01:17:09;17.38;;;9.07;;
43771;SDS011;59066;54.782;32.024;2023-04-25T01:19:37;15.18;;;9.23;;
43771;SDS011;59066;54.782;32.024;2023-04-25T01:22:05;15.07;;;8.45;;
43771;SDS011;59066;54.782;32.024;2023-04-25T01:24:32;15.65;;;9.05;;
43771;SDS011;59066;54.782;32.024;2023-04-25T01:27:01;16.08;;;10.27;;
43771;SDS011;59066;54.782;32.024;2023-04-25T01:29:29;15.43;;;10.85;;
43771;SDS011;59066;54.782;32.024;2023-04-25T01:31:58;22.15;;;14.13;;
43771;SDS011;59066;54.782;32.024;2023-04-25T01:34:26;23.08;;;15.88;;
43771;SDS011;59066;54.782;32.024;2023-04-25T01:36:57;32.15;;;16.17;;
43771;SDS011;59066;54.782;32.024;2023-04-25T01:39:27;25.23;;;16.48;;
43771;SDS011;59066;54.782;32.024;2023-04-25T01:41:55;19.45;;;14.32;;
43771;SDS011;59066;54.782;32.024;2023-04-25T01:44:23;16.63;;;11.98;;
43771;SDS011;59066;54.782;32.024;2023-04-25T01:46:51;15.50;;;10.75;;
43771;SDS011;59066;54.782;32.024;2023-04-25T01:49:19;13.38;;;9.18;;
43771;SDS011;59066;54.782;32.024;2023-04-25T01:51:46;15.40;;;9.18;;
43771;SDS011;59066;54.782;32.024;2023-04-25T01:54:14;13.63;;;9.35;;
43771;SDS011;59066;54.782;32.024;2023-04-25T01:56:42;14.70;;;9.52;;
43771;SDS011;59066;54.782;32.024;2023-04-25T01:59:10;16.58;;;11.05;;
43771;SDS011;59066;54.782;32.024;2023-04-25T02:01:44;11.85;;;8.70;;
43771;SDS011;59066;54.782;32.024;2023-04-25T02:04:20;16.98;;;8.90;;
43771;SDS011;59066;54.782;32.024;2023-04-25T02:06:48;14.13;;;8.23;;
43771;SDS011;59066;54.782;32.024;2023-04-25T02:09:16;19.00;;;9.40;;
43771;SDS011;59066;54.782;32.024;2023-04-25T02:11:49;11.82;;;7.95;;
43771;SDS011;59066;54.782;32.024;2023-04-25T02:14:52;13.10;;;7.82;;
43771;SDS011;59066;54.782;32.024;2023-04-25T02:17:40;12.32;;;7.90;;
43771;SDS011;59066;54.782;32.024;2023-04-25T02:20:07;16.33;;;9.30;;
43771;SDS011;59066;54.782;32.024;2023-04-25T02:22:35;14.57;;;8.10;;
43771;SDS011;59066;54.782;32.024;2023-04-25T02:25:05;12.65;;;7.72;;
43771;SDS011;59066;54.782;32.024;2023-04-25T02:27:33;15.75;;;9.30;;
43771;SDS011;59066;54.782;32.024;2023-04-25T02:30:00;12.93;;;9.25;;
43771;SDS011;59066;54.782;32.024;2023-04-25T02:32:28;11.05;;;8.35;;
43771;SDS011;59066;54.782;32.024;2023-04-25T02:34:56;13.05;;;9.10;;
43771;SDS011;59066;54.782;32.024;2023-04-25T02:37:25;15.15;;;9.27;;
43771;SDS011;59066;54.782;32.024;2023-04-25T02:39:53;15.98;;;8.45;;
43771;SDS011;59066;54.782;32.024;2023-04-25T02:42:20;16.88;;;8.82;;
43771;SDS011;59066;54.782;32.024;2023-04-25T02:44:49;12.55;;;8.25;;
43771;SDS011;59066;54.782;32.024;2023-04-25T02:47:16;17.63;;;8.93;;
43771;SDS011;59066;54.782;32.024;2023-04-25T02:49:44;14.07;;;9.25;;
43771;SDS011;59066;54.782;32.024;2023-04-25T02:52:12;16.15;;;9.50;;
43771;SDS011;59066;54.782;32.024;2023-04-25T02:54:40;15.80;;;8.05;;
43771;SDS011;59066;54.782;32.024;2023-04-25T02:57:08;19.35;;;8.40;;
43771;SDS011;59066;54.782;32.024;2023-04-25T02:59:37;18.25;;;7.97;;
43771;SDS011;59066;54.782;32.024;2023-04-25T03:02:05;14.82;;;7.78;;
43771;SDS011;59066;54.782;32.024;2023-04-25T03:04:32;14.25;;;7.75;;
43771;SDS011;59066;54.782;32.024;2023-04-25T03:07:00;22.15;;;9.30;;
43771;SDS011;59066;54.782;32.024;2023-04-25T03:09:28;26.48;;;9.95;;
43771;SDS011;59066;54.782;32.024;2023-04-25T03:11:56;21.40;;;8.15;;
43771;SDS011;59066;54.782;32.024;2023-04-25T03:14:23;15.93;;;8.20;;
43771;SDS011;59066;54.782;32.024;2023-04-25T03:16:51;11.15;;;7.03;;
43771;SDS011;59066;54.782;32.024;2023-04-25T03:19:19;12.48;;;7.75;;
43771;SDS011;59066;54.782;32.024;2023-04-25T03:21:47;9.82;;;7.20;;
43771;SDS011;59066;54.782;32.024;2023-04-25T03:24:15;12.40;;;7.25;;
43771;SDS011;59066;54.782;32.024;2023-04-25T03:26:42;18.35;;;9.35;;
43771;SDS011;59066;54.782;32.024;2023-04-25T03:29:10;10.32;;;6.82;;
43771;SDS011;59066;54.782;32.024;2023-04-25T03:31:39;13.50;;;7.18;;
43771;SDS011;59066;54.782;32.024;2023-04-25T03:34:08;12.45;;;6.90;;
43771;SDS011;59066;54.782;32.024;2023-04-25T03:36:36;12.40;;;7.80;;
43771;SDS011;59066;54.782;32.024;2023-04-25T03:39:06;13.93;;;7.50;;
43771;SDS011;59066;54.782;32.024;2023-04-25T03:41:33;20.10;;;7.50;;
43771;SDS011;59066;54.782;32.024;2023-04-25T03:44:07;22.65;;;9.05;;
43771;SDS011;59066;54.782;32.024;2023-04-25T03:46:34;13.45;;;6.72;;
43771;SDS011;59066;54.782;32.024;2023-04-25T03:49:02;13.63;;;7.00;;
43771;SDS011;59066;54.782;32.024;2023-04-25T03:51:49;17.98;;;8.05;;
43771;SDS011;59066;54.782;32.024;2023-04-25T03:54:17;17.92;;;6.53;;
43771;SDS011;59066;54.782;32.024;2023-04-25T03:56:53;13.27;;;7.07;;
43771;SDS011;59066;54.782;32.024;2023-04-25T03:59:24;12.70;;;6.95;;
43771;SDS011;59066;54.782;32.024;2023-04-25T04:01:53;17.58;;;6.90;;
43771;SDS011;59066;54.782;32.024;2023-04-25T04:04:21;12.95;;;7.30;;
43771;SDS011;59066;54.782;32.024;2023-04-25T04:06:49;16.15;;;7.38;;
43771;SDS011;59066;54.782;32.024;2023-04-25T04:09:24;14.77;;;7.53;;
43771;SDS011;59066;54.782;32.024;2023-04-25T04:11:53;18.05;;;8.75;;
43771;SDS011;59066;54.782;32.024;2023-04-25T04:14:21;32.90;;;10.68;;
43771;SDS011;59066;54.782;32.024;2023-04-25T04:16:51;22.17;;;7.93;;
43771;SDS011;59066;54.782;32.024;2023-04-25T04:19:20;13.02;;;7.57;;
43771;SDS011;59066;54.782;32.024;2023-04-25T04:22:14;17.80;;;6.90;;
43771;SDS011;59066;54.782;32.024;2023-04-25T04:24:41;19.52;;;7.40;;
43771;SDS011;59066;54.782;32.024;2023-04-25T04:27:18;28.60;;;10.63;;
43771;SDS011;59066;54.782;32.024;2023-04-25T04:30:06;15.50;;;6.93;;
43771;SDS011;59066;54.782;32.024;2023-04-25T04:32:51;19.20;;;7.07;;
43771;SDS011;59066;54.782;32.024;2023-04-25T04:35:20;12.90;;;6.82;;
43771;SDS011;59066;54.782;32.024;2023-04-25T04:37:47;16.65;;;6.82;;
43771;SDS011;59066;54.782;32.024;2023-04-25T04:40:17;14.43;;;6.88;;
43771;SDS011;59066;54.782;32.024;2023-04-25T04:42:52;20.02;;;6.85;;
43771;SDS011;59066;54.782;32.024;2023-04-25T04:45:38;17.05;;;6.97;;
43771;SDS011;59066;54.782;32.024;2023-04-25T04:48:25;22.38;;;7.50;;
43771;SDS011;59066;54.782;32.024;2023-04-25T04:50:53;34.10;;;9.07;;
43771;SDS011;59066;54.782;32.024;2023-04-25T04:53:23;21.50;;;8.90;;
43771;SDS011;59066;54.782;32.024;2023-04-25T04:56:09;23.83;;;7.50;;
43771;SDS011;59066;54.782;32.024;2023-04-25T04:58:51;22.80;;;8.30;;
43771;SDS011;59066;54.782;32.024;2023-04-25T05:01:42;25.50;;;7.70;;
43771;SDS011;59066;54.782;32.024;2023-04-25T05:04:13;14.95;;;7.03;;
43771;SDS011;59066;54.782;32.024;2023-04-25T05:07:00;66.45;;;12.43;;
43771;SDS011;59066;54.782;32.024;2023-04-25T05:09:54;16.13;;;7.55;;
43771;SDS011;59066;54.782;32.024;2023-04-25T05:12:57;32.20;;;9.60;;
43771;SDS011;59066;54.782;32.024;2023-04-25T05:15:25;40.88;;;9.50;;
43771;SDS011;59066;54.782;32.024;2023-04-25T05:18:14;18.45;;;7.43;;
43771;SDS011;59066;54.782;32.024;2023-04-25T05:21:04;20.58;;;6.90;;
43771;SDS011;59066;54.782;32.024;2023-04-25T05:23:44;29.45;;;9.75;;
43771;SDS011;59066;54.782;32.024;2023-04-25T05:26:30;17.97;;;7.23;;
43771;SDS011;59066;54.782;32.024;2023-04-25T05:29:16;17.35;;;7.45;;
43771;SDS011;59066;54.782;32.024;2023-04-25T05:31:58;29.80;;;11.43;;
43771;SDS011;59066;54.782;32.024;2023-04-25T05:34:26;20.55;;;8.13;;
43771;SDS011;59066;54.782;32.024;2023-04-25T05:37:04;26.98;;;8.05;;
43771;SDS011;59066;54.782;32.024;2023-04-25T05:39:35;15.20;;;7.45;;
43771;SDS011;59066;54.782;32.024;2023-04-25T05:42:21;18.30;;;9.55;;
43771;SDS011;59066;54.782;32.024;2023-04-25T05:44:49;18.63;;;7.45;;
43771;SDS011;59066;54.782;32.024;2023-04-25T05:47:43;28.95;;;9.93;;
43771;SDS011;59066;54.782;32.024;2023-04-25T05:50:40;15.65;;;7.28;;
43771;SDS011;59066;54.782;32.024;2023-04-25T05:53:42;18.45;;;6.60;;
43771;SDS011;59066;54.782;32.024;2023-04-25T05:56:11;17.63;;;6.35;;
43771;SDS011;59066;54.782;32.024;2023-04-25T05:58:40;18.42;;;7.63;;
43771;SDS011;59066;54.782;32.024;2023-04-25T06:01:10;11.27;;;5.50;;
43771;SDS011;59066;54.782;32.024;2023-04-25T06:03:37;14.65;;;5.70;;
43771;SDS011;59066;54.782;32.024;2023-04-25T06:06:05;18.38;;;7.30;;
43771;SDS011;59066;54.782;32.024;2023-04-25T06:08:33;31.20;;;6.25;;
43771;SDS011;59066;54.782;32.024;2023-04-25T06:11:00;13.25;;;6.25;;
43771;SDS011;59066;54.782;32.024;2023-04-25T06:13:28;29.83;;;7.75;;
43771;SDS011;59066;54.782;32.024;2023-04-25T06:15:56;18.38;;;6.70;;
43771;SDS011;59066;54.782;32.024;2023-04-25T06:18:25;23.42;;;8.32;;
43771;SDS011;59066;54.782;32.024;2023-04-25T06:20:52;13.32;;;5.85;;
43771;SDS011;59066;54.782;32.024;2023-04-25T06:23:22;12.77;;;4.93;;
43771;SDS011;59066;54.782;32.024;2023-04-25T06:26:00;11.75;;;4.45;;
43771;SDS011;59066;54.782;32.024;2023-04-25T06:28:29;20.85;;;9.52;;
43771;SDS011;59066;54.782;32.024;2023-04-25T06:30:57;15.98;;;5.53;;
43771;SDS011;59066;54.782;32.024;2023-04-25T06:33:24;12.18;;;4.50;;
43771;SDS011;59066;54.782;32.024;2023-04-25T06:35:53;13.90;;;5.93;;
43771;SDS011;59066;54.782;32.024;2023-04-25T06:38:24;20.33;;;7.07;;
43771;SDS011;59066;54.782;32.024;2023-04-25T06:40:54;21.48;;;6.63;;
43771;SDS011;59066;54.782;32.024;2023-04-25T06:43:22;16.65;;;5.35;;
43771;SDS011;59066;54.782;32.024;2023-04-25T06:46:16;22.58;;;5.63;;
43771;SDS011;59066;54.782;32.024;2023-04-25T06:48:46;17.45;;;5.78;;
43771;SDS011;59066;54.782;32.024;2023-04-25T06:51:15;16.33;;;6.10;;
43771;SDS011;59066;54.782;32.024;2023-04-25T06:53:43;17.50;;;6.30;;
43771;SDS011;59066;54.782;32.024;2023-04-25T06:56:22;17.20;;;5.30;;
43771;SDS011;59066;54.782;32.024;2023-04-25T06:58:57;18.10;;;6.43;;
43771;SDS011;59066;54.782;32.024;2023-04-25T07:01:46;22.60;;;6.03;;
43771;SDS011;59066;54.782;32.024;2023-04-25T07:04:16;12.85;;;6.35;;
43771;SDS011;59066;54.782;32.024;2023-04-25T07:06:49;19.40;;;5.93;;
43771;SDS011;59066;54.782;32.024;2023-04-25T07:09:21;22.45;;;6.88;;
43771;SDS011;59066;54.782;32.024;2023-04-25T07:11:50;21.58;;;5.35;;
43771;SDS011;59066;54.782;32.024;2023-04-25T07:14:17;21.40;;;11.20;;
43771;SDS011;59066;54.782;32.024;2023-04-25T07:16:45;13.52;;;5.22;;
43771;SDS011;59066;54.782;32.024;2023-04-25T07:19:13;42.83;;;8.45;;
43771;SDS011;59066;54.782;32.024;2023-04-25T07:21:41;21.50;;;6.28;;
43771;SDS011;59066;54.782;32.024;2023-04-25T07:24:10;25.92;;;8.02;;
43771;SDS011;59066;54.782;32.024;2023-04-25T07:26:42;17.15;;;5.25;;
43771;SDS011;59066;54.782;32.024;2023-04-25T07:29:25;23.60;;;6.65;;
43771;SDS011;59066;54.782;32.024;2023-04-25T07:31:53;8.73;;;5.30;;
43771;SDS011;59066;54.782;32.024;2023-04-25T07:34:21;32.92;;;6.10;;
43771;SDS011;59066;54.782;32.024;2023-04-25T07:36:48;21.08;;;6.43;;
43771;SDS011;59066;54.782;32.024;2023-04-25T07:39:16;32.35;;;7.65;;
43771;SDS011;59066;54.782;32.024;2023-04-25T07:41:44;16.40;;;4.90;;
43771;SDS011;59066;54.782;32.024;2023-04-25T07:44:17;17.02;;;5.03;;
43771;SDS011;59066;54.782;32.024;2023-04-25T07:46:45;26.58;;;4.63;;
43771;SDS011;59066;54.782;32.024;2023-04-25T07:49:12;19.45;;;5.55;;
43771;SDS011;59066;54.782;32.024;2023-04-25T07:51:43;12.57;;;3.90;;
43771;SDS011;59066;54.782;32.024;2023-04-25T07:54:14;27.90;;;5.00;;
43771;SDS011;59066;54.782;32.024;2023-04-25T07:56:47;25.23;;;4.47;;
43771;SDS011;59066;54.782;32.024;2023-04-25T07:59:19;12.93;;;4.50;;
43771;SDS011;59066;54.782;32.024;2023-04-25T08:01:49;16.10;;;4.22;;
43771;SDS011;59066;54.782;32.024;2023-04-25T08:04:18;23.95;;;6.85;;
43771;SDS011;59066;54.782;32.024;2023-04-25T08:06:53;11.60;;;4.30;;
43771;SDS011;59066;54.782;32.024;2023-04-25T08:09:27;25.40;;;6.03;;
43771;SDS011;59066;54.782;32.024;2023-04-25T08:11:56;16.45;;;3.65;;
43771;SDS011;59066;54.782;32.024;2023-04-25T08:14:28;20.60;;;4.65;;
43771;SDS011;59066;54.782;32.024;2023-04-25T08:17:03;14.33;;;6.33;;
43771;SDS011;59066;54.782;32.024;2023-04-25T08:19:33;14.82;;;4.78;;
43771;SDS011;59066;54.782;32.024;2023-04-25T08:22:01;17.10;;;4.40;;
43771;SDS011;59066;54.782;32.024;2023-04-25T08:24:38;17.77;;;4.70;;
43771;SDS011;59066;54.782;32.024;2023-04-25T08:27:07;13.73;;;4.55;;
43771;SDS011;59066;54.782;32.024;2023-04-25T08:29:35;14.25;;;4.63;;
43771;SDS011;59066;54.782;32.024;2023-04-25T08:32:03;23.85;;;5.18;;
43771;SDS011;59066;54.782;32.024;2023-04-25T08:34:32;11.98;;;3.72;;
43771;SDS011;59066;54.782;32.024;2023-04-25T08:37:02;10.73;;;3.60;;
43771;SDS011;59066;54.782;32.024;2023-04-25T08:39:43;10.45;;;3.78;;
43771;SDS011;59066;54.782;32.024;2023-04-25T08:42:30;53.03;;;7.63;;
43771;SDS011;59066;54.782;32.024;2023-04-25T08:45:02;17.17;;;5.15;;
43771;SDS011;59066;54.782;32.024;2023-04-25T08:47:35;34.28;;;5.53;;
43771;SDS011;59066;54.782;32.024;2023-04-25T08:50:05;10.98;;;3.65;;
43771;SDS011;59066;54.782;32.024;2023-04-25T08:55:00;16.58;;;4.57;;
43771;SDS011;59066;54.782;32.024;2023-04-25T08:57:30;10.75;;;3.85;;
43771;SDS011;59066;54.782;32.024;2023-04-25T08:59:58;80.78;;;6.80;;
43771;SDS011;59066;54.782;32.024;2023-04-25T09:02:27;12.68;;;3.30;;
43771;SDS011;59066;54.782;32.024;2023-04-25T09:04:56;16.05;;;3.83;;
43771;SDS011;59066;54.782;32.024;2023-04-25T09:07:24;14.55;;;5.00;;
43771;SDS011;59066;54.782;32.024;2023-04-25T09:09:53;20.20;;;4.68;;
43771;SDS011;59066;54.782;32.024;2023-04-25T09:12:21;12.23;;;3.50;;
43771;SDS011;59066;54.782;32.024;2023-04-25T09:15:09;14.27;;;4.47;;
43771;SDS011;59066;54.782;32.024;2023-04-25T09:21:09;21.05;;;4.72;;
43771;SDS011;59066;54.782;32.024;2023-04-25T09:23:49;11.10;;;4.05;;
43771;SDS011;59066;54.782;32.024;2023-04-25T09:26:19;13.55;;;4.05;;
43771;SDS011;59066;54.782;32.024;2023-04-25T09:28:49;13.98;;;3.47;;
43771;SDS011;59066;54.782;32.024;2023-04-25T09:31:36;13.93;;;3.60;;
43771;SDS011;59066;54.782;32.024;2023-04-25T09:34:06;10.88;;;3.92;;
43771;SDS011;59066;54.782;32.024;2023-04-25T09:36:42;28.48;;;5.28;;
43771;SDS011;59066;54.782;32.024;2023-04-25T09:39:23;15.18;;;3.70;;
43771;SDS011;59066;54.782;32.024;2023-04-25T09:42:03;11.35;;;3.70;;
43771;SDS011;59066;54.782;32.024;2023-04-25T09:44:31;12.52;;;4.07;;
43771;SDS011;59066;54.782;32.024;2023-04-25T09:47:01;11.32;;;3.95;;
43771;SDS011;59066;54.782;32.024;2023-04-25T09:51:56;20.23;;;4.47;;
43771;SDS011;59066;54.782;32.024;2023-04-25T09:54:30;12.77;;;4.40;;
43771;SDS011;59066;54.782;32.024;2023-04-25T09:57:09;15.63;;;3.92;;
43771;SDS011;59066;54.782;32.024;2023-04-25T09:59:39;13.25;;;4.35;;
43771;SDS011;59066;54.782;32.024;2023-04-25T10:02:17;10.00;;;4.18;;
43771;SDS011;59066;54.782;32.024;2023-04-25T10:04:50;28.15;;;6.53;;
43771;SDS011;59066;54.782;32.024;2023-04-25T10:07:26;23.20;;;5.85;;
43771;SDS011;59066;54.782;32.024;2023-04-25T10:09:59;14.55;;;4.75;;
43771;SDS011;59066;54.782;32.024;2023-04-25T10:12:32;16.88;;;4.03;;
43771;SDS011;59066;54.782;32.024;2023-04-25T10:15:00;9.25;;;3.63;;
43771;SDS011;59066;54.782;32.024;2023-04-25T10:17:29;9.57;;;3.75;;
43771;SDS011;59066;54.782;32.024;2023-04-25T10:19:58;12.00;;;3.70;;
43771;SDS011;59066;54.782;32.024;2023-04-25T10:22:32;12.30;;;4.32;;
43771;SDS011;59066;54.782;32.024;2023-04-25T10:25:03;7.43;;;3.80;;
43771;SDS011;59066;54.782;32.024;2023-04-25T10:27:34;6.75;;;3.17;;
43771;SDS011;59066;54.782;32.024;2023-04-25T10:30:09;18.27;;;4.28;;
43771;SDS011;59066;54.782;32.024;2023-04-25T10:32:42;17.13;;;7.97;;
43771;SDS011;59066;54.782;32.024;2023-04-25T10:35:23;17.20;;;3.83;;
43771;SDS011;59066;54.782;32.024;2023-04-25T10:37:57;14.02;;;4.05;;
43771;SDS011;59066;54.782;32.024;2023-04-25T10:40:25;10.82;;;3.55;;
43771;SDS011;59066;54.782;32.024;2023-04-25T10:42:53;13.98;;;3.17;;
43771;SDS011;59066;54.782;32.024;2023-04-25T10:45:22;13.55;;;3.70;;
43771;SDS011;59066;54.782;32.024;2023-04-25T10:47:49;14.43;;;4.45;;
43771;SDS011;59066;54.782;32.024;2023-04-25T10:50:17;16.45;;;3.85;;
43771;SDS011;59066;54.782;32.024;2023-04-25T10:52:44;8.70;;;3.22;;
43771;SDS011;59066;54.782;32.024;2023-04-25T10:55:12;18.83;;;4.30;;
43771;SDS011;59066;54.782;32.024;2023-04-25T10:57:40;21.20;;;4.97;;
43771;SDS011;59066;54.782;32.024;2023-04-25T11:00:19;14.07;;;4.28;;
43771;SDS011;59066;54.782;32.024;2023-04-25T11:02:57;11.75;;;4.97;;
43771;SDS011;59066;54.782;32.024;2023-04-25T11:05:29;18.70;;;5.05;;
43771;SDS011;59066;54.782;32.024;2023-04-25T11:08:02;10.45;;;3.83;;
43771;SDS011;59066;54.782;32.024;2023-04-25T11:10:34;6.50;;;3.60;;
43771;SDS011;59066;54.782;32.024;2023-04-25T11:13:04;9.52;;;3.17;;
43771;SDS011;59066;54.782;32.024;2023-04-25T11:15:32;21.02;;;8.10;;
43771;SDS011;59066;54.782;32.024;2023-04-25T11:17:59;11.18;;;4.07;;
43771;SDS011;59066;54.782;32.024;2023-04-25T11:20:28;17.33;;;4.30;;
43771;SDS011;59066;54.782;32.024;2023-04-25T11:22:57;16.35;;;6.85;;
43771;SDS011;59066;54.782;32.024;2023-04-25T11:25:29;23.45;;;12.25;;
43771;SDS011;59066;54.782;32.024;2023-04-25T11:27:58;11.23;;;5.05;;
43771;SDS011;59066;54.782;32.024;2023-04-25T11:30:28;10.40;;;3.33;;
43771;SDS011;59066;54.782;32.024;2023-04-25T11:32:57;10.90;;;4.28;;
43771;SDS011;59066;54.782;32.024;2023-04-25T11:35:25;23.60;;;4.63;;
43771;SDS011;59066;54.782;32.024;2023-04-25T11:37:53;14.05;;;5.07;;
43771;SDS011;59066;54.782;32.024;2023-04-25T11:40:21;22.52;;;5.25;;
43771;SDS011;59066;54.782;32.024;2023-04-25T11:42:48;21.80;;;5.20;;
43771;SDS011;59066;54.782;32.024;2023-04-25T11:45:16;13.65;;;3.10;;
43771;SDS011;59066;54.782;32.024;2023-04-25T11:47:45;18.70;;;3.45;;
43771;SDS011;59066;54.782;32.024;2023-04-25T11:50:13;26.10;;;4.57;;
43771;SDS011;59066;54.782;32.024;2023-04-25T11:52:45;13.30;;;3.65;;
43771;SDS011;59066;54.782;32.024;2023-04-25T11:55:14;14.52;;;4.38;;
43771;SDS011;59066;54.782;32.024;2023-04-25T11:57:47;14.85;;;5.93;;
43771;SDS011;59066;54.782;32.024;2023-04-25T12:00:20;12.05;;;4.80;;
43771;SDS011;59066;54.782;32.024;2023-04-25T12:02:52;11.98;;;4.20;;
43771;SDS011;59066;54.782;32.024;2023-04-25T12:05:25;18.27;;;5.70;;
43771;SDS011;59066;54.782;32.024;2023-04-25T12:08:15;37.15;;;5.03;;
43771;SDS011;59066;54.782;32.024;2023-04-25T12:10:44;25.75;;;4.22;;
43771;SDS011;59066;54.782;32.024;2023-04-25T12:13:20;11.38;;;3.80;;
43771;SDS011;59066;54.782;32.024;2023-04-25T12:15:48;13.38;;;4.53;;
43771;SDS011;59066;54.782;32.024;2023-04-25T12:18:20;14.45;;;3.97;;
43771;SDS011;59066;54.782;32.024;2023-04-25T12:20:50;19.58;;;4.50;;
43771;SDS011;59066;54.782;32.024;2023-04-25T12:23:26;21.40;;;3.85;;
43771;SDS011;59066;54.782;32.024;2023-04-25T12:25:55;19.88;;;5.05;;
43771;SDS011;59066;54.782;32.024;2023-04-25T12:28:23;18.05;;;5.22;;
43771;SDS011;59066;54.782;32.024;2023-04-25T12:31:01;11.70;;;3.42;;
43771;SDS011;59066;54.782;32.024;2023-04-25T12:33:37;7.72;;;3.15;;
43771;SDS011;59066;54.782;32.024;2023-04-25T12:36:06;16.83;;;6.32;;
43771;SDS011;59066;54.782;32.024;2023-04-25T12:38:39;18.98;;;5.10;;
43771;SDS011;59066;54.782;32.024;2023-04-25T12:41:09;12.85;;;5.05;;
43771;SDS011;59066;54.782;32.024;2023-04-25T12:43:36;7.00;;;2.67;;
43771;SDS011;59066;54.782;32.024;2023-04-25T12:46:04;8.98;;;2.63;;
43771;SDS011;59066;54.782;32.024;2023-04-25T12:48:31;9.05;;;2.80;;
43771;SDS011;59066;54.782;32.024;2023-04-25T12:50:59;8.05;;;2.65;;
43771;SDS011;59066;54.782;32.024;2023-04-25T12:53:27;14.93;;;4.15;;
43771;SDS011;59066;54.782;32.024;2023-04-25T12:55:54;9.77;;;3.30;;
43771;SDS011;59066;54.782;32.024;2023-04-25T12:58:22;38.67;;;6.03;;
43771;SDS011;59066;54.782;32.024;2023-04-25T13:00:51;13.38;;;3.33;;
43771;SDS011;59066;54.782;32.024;2023-04-25T13:03:19;14.25;;;3.67;;
43771;SDS011;59066;54.782;32.024;2023-04-25T13:05:47;19.10;;;4.85;;
43771;SDS011;59066;54.782;32.024;2023-04-25T13:08:14;13.73;;;4.32;;
43771;SDS011;59066;54.782;32.024;2023-04-25T13:10:42;12.48;;;3.67;;
43771;SDS011;59066;54.782;32.024;2023-04-25T13:13:09;6.90;;;3.10;;
43771;SDS011;59066;54.782;32.024;2023-04-25T13:15:37;12.80;;;3.63;;
43771;SDS011;59066;54.782;32.024;2023-04-25T13:18:05;18.20;;;3.95;;
43771;SDS011;59066;54.782;32.024;2023-04-25T13:20:32;8.23;;;3.63;;
43771;SDS011;59066;54.782;32.024;2023-04-25T13:23:00;13.60;;;4.25;;
43771;SDS011;59066;54.782;32.024;2023-04-25T13:25:28;11.80;;;3.85;;
43771;SDS011;59066;54.782;32.024;2023-04-25T13:27:55;12.80;;;3.80;;
43771;SDS011;59066;54.782;32.024;2023-04-25T13:30:23;17.08;;;4.93;;
43771;SDS011;59066;54.782;32.024;2023-04-25T13:32:51;14.43;;;5.18;;
43771;SDS011;59066;54.782;32.024;2023-04-25T13:35:19;22.45;;;6.78;;
43771;SDS011;59066;54.782;32.024;2023-04-25T13:37:47;15.48;;;3.95;;
43771;SDS011;59066;54.782;32.024;2023-04-25T13:40:14;10.25;;;3.97;;
43771;SDS011;59066;54.782;32.024;2023-04-25T13:42:42;7.78;;;3.40;;
43771;SDS011;59066;54.782;32.024;2023-04-25T13:45:12;13.60;;;4.10;;
43771;SDS011;59066;54.782;32.024;2023-04-25T13:47:39;10.05;;;5.47;;
43771;SDS011;59066;54.782;32.024;2023-04-25T13:50:07;12.15;;;5.15;;
43771;SDS011;59066;54.782;32.024;2023-04-25T13:52:35;16.25;;;5.20;;
43771;SDS011;59066;54.782;32.024;2023-04-25T13:55:03;8.48;;;3.88;;
43771;SDS011;59066;54.782;32.024;2023-04-25T13:57:34;13.20;;;3.88;;
43771;SDS011;59066;54.782;32.024;2023-04-25T14:00:03;7.07;;;3.45;;
43771;SDS011;59066;54.782;32.024;2023-04-25T14:02:35;12.93;;;3.92;;
43771;SDS011;59066;54.782;32.024;2023-04-25T14:05:04;40.13;;;25.50;;
43771;SDS011;59066;54.782;32.024;2023-04-25T14:07:33;13.77;;;4.47;;
43771;SDS011;59066;54.782;32.024;2023-04-25T14:10:02;11.25;;;3.50;;
43771;SDS011;59066;54.782;32.024;2023-04-25T14:12:32;10.50;;;3.60;;
43771;SDS011;59066;54.782;32.024;2023-04-25T14:14:59;6.95;;;3.35;;
43771;SDS011;59066;54.782;32.024;2023-04-25T14:17:27;9.57;;;3.25;;
43771;SDS011;59066;54.782;32.024;2023-04-25T14:19:55;20.60;;;3.75;;
43771;SDS011;59066;54.782;32.024;2023-04-25T14:22:23;18.35;;;6.20;;
43771;SDS011;59066;54.782;32.024;2023-04-25T14:24:51;13.07;;;4.90;;
43771;SDS011;59066;54.782;32.024;2023-04-25T14:27:18;13.35;;;5.30;;
43771;SDS011;59066;54.782;32.024;2023-04-25T14:29:46;19.60;;;4.43;;
43771;SDS011;59066;54.782;32.024;2023-04-25T14:32:14;20.88;;;4.72;;
43771;SDS011;59066;54.782;32.024;2023-04-25T14:34:42;8.65;;;3.83;;
43771;SDS011;59066;54.782;32.024;2023-04-25T14:37:10;20.77;;;4.38;;
43771;SDS011;59066;54.782;32.024;2023-04-25T14:39:37;9.75;;;3.70;;
43771;SDS011;59066;54.782;32.024;2023-04-25T14:42:05;14.20;;;4.43;;
43771;SDS011;59066;54.782;32.024;2023-04-25T14:44:32;13.20;;;4.30;;
43771;SDS011;59066;54.782;32.024;2023-04-25T14:47:00;13.18;;;4.30;;
43771;SDS011;59066;54.782;32.024;2023-04-25T14:49:27;12.88;;;4.95;;
43771;SDS011;59066;54.782;32.024;2023-04-25T14:51:55;17.63;;;5.68;;